sensor_id;sensor_type;location;lat;lon;timestamp;temperature;humidity
2387;DHT22;49473;50.772;8.768;2022-11-02T00:00:45;8.70;99.90
2387;DHT22;49473;50.772;8.768;2022-11-02T00:03:11;8.80;99.90
2387;DHT22;49473;50.772;8.768;2022-11-02T00:05:38;8.80;99.90
2387;DHT22;49473;50.772;8.768;2022-11-02T00:08:06;8.80;99.90
2387;DHT22;49473;50.772;8.768;2022-11-02T00:10:33;8.80;99.90
2387;DHT22;49473;50.772;8.768;2022-11-02T00:13:00;8.80;99.90
2387;DHT22;49473;50.772;8.768;2022-11-02T00:15:29;8.80;99.90
2387;DHT22;49473;50.772;8.768;2022-11-02T00:17:59;8.90;99.90
2387;DHT22;49473;50.772;8.768;2022-11-02T00:20:28;8.90;99.90
2387;DHT22;49473;50.772;8.768;2022-11-02T00:22:56;8.90;99.90
2387;DHT22;49473;50.772;8.768;2022-11-02T00:25:26;9.00;99.90
2387;DHT22;49473;50.772;8.768;2022-11-02T00:27:53;9.00;99.90
2387;DHT22;49473;50.772;8.768;2022-11-02T00:30:20;9.10;99.90
2387;DHT22;49473;50.772;8.768;2022-11-02T00:32:47;9.10;99.90
2387;DHT22;49473;50.772;8.768;2022-11-02T00:35:14;9.10;99.90
2387;DHT22;49473;50.772;8.768;2022-11-02T00:37:41;9.10;99.90
2387;DHT22;49473;50.772;8.768;2022-11-02T00:40:08;9.10;99.90
2387;DHT22;49473;50.772;8.768;2022-11-02T00:42:37;9.10;99.90
2387;DHT22;49473;50.772;8.768;2022-11-02T00:45:04;9.00;99.90
2387;DHT22;49473;50.772;8.768;2022-11-02T00:47:31;8.90;99.90
2387;DHT22;49473;50.772;8.768;2022-11-02T00:49:58;8.80;99.90
2387;DHT22;49473;50.772;8.768;2022-11-02T00:52:25;8.70;99.90
2387;DHT22;49473;50.772;8.768;2022-11-02T00:54:52;8.60;99.90
2387;DHT22;49473;50.772;8.768;2022-11-02T00:57:19;8.60;99.90
2387;DHT22;49473;50.772;8.768;2022-11-02T00:59:47;8.50;99.90
2387;DHT22;49473;50.772;8.768;2022-11-02T01:02:14;8.50;99.90
2387;DHT22;49473;50.772;8.768;2022-11-02T01:04:40;8.50;99.90
2387;DHT22;49473;50.772;8.768;2022-11-02T01:07:07;8.50;99.90
2387;DHT22;49473;50.772;8.768;2022-11-02T01:09:34;8.40;99.90
2387;DHT22;49473;50.772;8.768;2022-11-02T01:12:01;8.40;99.90
2387;DHT22;49473;50.772;8.768;2022-11-02T01:14:28;8.40;99.90
2387;DHT22;49473;50.772;8.768;2022-11-02T01:16:56;8.50;99.90
2387;DHT22;49473;50.772;8.768;2022-11-02T01:19:23;8.50;99.90
2387;DHT22;49473;50.772;8.768;2022-11-02T01:21:50;8.60;99.90
2387;DHT22;49473;50.772;8.768;2022-11-02T01:24:16;8.70;99.90
2387;DHT22;49473;50.772;8.768;2022-11-02T01:26:43;8.90;99.90
2387;DHT22;49473;50.772;8.768;2022-11-02T01:29:10;8.90;99.90
2387;DHT22;49473;50.772;8.768;2022-11-02T01:31:37;8.90;99.90
2387;DHT22;49473;50.772;8.768;2022-11-02T01:34:05;9.10;99.90
2387;DHT22;49473;50.772;8.768;2022-11-02T01:36:32;9.10;99.90
2387;DHT22;49473;50.772;8.768;2022-11-02T01:38:58;9.10;99.90
2387;DHT22;49473;50.772;8.768;2022-11-02T01:41:25;9.20;99.90
2387;DHT22;49473;50.772;8.768;2022-11-02T01:43:54;9.20;99.90
2387;DHT22;49473;50.772;8.768;2022-11-02T01:46:28;9.30;99.90
2387;DHT22;49473;50.772;8.768;2022-11-02T01:49:09;9.30;99.90
2387;DHT22;49473;50.772;8.768;2022-11-02T01:51:42;9.20;99.90
2387;DHT22;49473;50.772;8.768;2022-11-02T01:54:15;9.20;99.90
2387;DHT22;49473;50.772;8.768;2022-11-02T01:56:47;9.20;99.90
2387;DHT22;49473;50.772;8.768;2022-11-02T01:59:18;9.20;99.90
2387;DHT22;49473;50.772;8.768;2022-11-02T02:01:47;9.20;99.90
2387;DHT22;49473;50.772;8.768;2022-11-02T02:04:16;9.10;99.90
2387;DHT22;49473;50.772;8.768;2022-11-02T02:06:43;9.00;99.90
2387;DHT22;49473;50.772;8.768;2022-11-02T02:09:10;9.00;99.90
2387;DHT22;49473;50.772;8.768;2022-11-02T02:11:39;8.90;99.90
2387;DHT22;49473;50.772;8.768;2022-11-02T02:14:08;8.90;99.90
2387;DHT22;49473;50.772;8.768;2022-11-02T02:17:01;8.90;99.90
2387;DHT22;49473;50.772;8.768;2022-11-02T02:19:47;8.80;99.90
2387;DHT22;49473;50.772;8.768;2022-11-02T02:25:44;8.70;99.90
2387;DHT22;49473;50.772;8.768;2022-11-02T02:28:18;8.50;99.90
2387;DHT22;49473;50.772;8.768;2022-11-02T02:30:50;8.50;99.90
2387;DHT22;49473;50.772;8.768;2022-11-02T02:33:27;8.40;99.90
2387;DHT22;49473;50.772;8.768;2022-11-02T02:35:59;8.40;99.90
2387;DHT22;49473;50.772;8.768;2022-11-02T02:38:31;8.50;99.90
2387;DHT22;49473;50.772;8.768;2022-11-02T02:41:03;8.50;99.90
2387;DHT22;49473;50.772;8.768;2022-11-02T02:43:37;8.40;99.90
2387;DHT22;49473;50.772;8.768;2022-11-02T02:46:08;8.40;99.90
2387;DHT22;49473;50.772;8.768;2022-11-02T02:48:39;8.40;99.90
2387;DHT22;49473;50.772;8.768;2022-11-02T02:51:10;8.40;99.90
2387;DHT22;49473;50.772;8.768;2022-11-02T02:53:42;8.40;99.90
2387;DHT22;49473;50.772;8.768;2022-11-02T02:56:12;8.50;99.90
2387;DHT22;49473;50.772;8.768;2022-11-02T02:58:46;8.50;99.90
2387;DHT22;49473;50.772;8.768;2022-11-02T03:01:15;8.60;99.90
2387;DHT22;49473;50.772;8.768;2022-11-02T03:03:43;8.60;99.90
2387;DHT22;49473;50.772;8.768;2022-11-02T03:06:17;8.70;99.90
2387;DHT22;49473;50.772;8.768;2022-11-02T03:08:49;8.80;99.90
2387;DHT22;49473;50.772;8.768;2022-11-02T03:11:19;8.80;99.90
2387;DHT22;49473;50.772;8.768;2022-11-02T03:14:04;8.90;99.90
2387;DHT22;49473;50.772;8.768;2022-11-02T03:16:43;9.00;99.90
2387;DHT22;49473;50.772;8.768;2022-11-02T03:19:19;9.00;99.90
2387;DHT22;49473;50.772;8.768;2022-11-02T03:21:51;9.10;99.90
2387;DHT22;49473;50.772;8.768;2022-11-02T03:24:25;9.10;99.90
2387;DHT22;49473;50.772;8.768;2022-11-02T03:27:02;9.20;99.90
2387;DHT22;49473;50.772;8.768;2022-11-02T03:29:36;9.30;99.90
2387;DHT22;49473;50.772;8.768;2022-11-02T03:32:07;9.30;99.90
2387;DHT22;49473;50.772;8.768;2022-11-02T03:34:38;9.30;99.90
2387;DHT22;49473;50.772;8.768;2022-11-02T03:37:11;9.30;99.90
2387;DHT22;49473;50.772;8.768;2022-11-02T03:39:42;9.40;99.90
2387;DHT22;49473;50.772;8.768;2022-11-02T03:42:14;9.40;99.90
2387;DHT22;49473;50.772;8.768;2022-11-02T03:44:46;9.50;99.90
2387;DHT22;49473;50.772;8.768;2022-11-02T03:47:16;9.50;99.90
2387;DHT22;49473;50.772;8.768;2022-11-02T03:49:46;9.60;99.90
2387;DHT22;49473;50.772;8.768;2022-11-02T03:52:18;9.70;99.90
2387;DHT22;49473;50.772;8.768;2022-11-02T03:54:51;9.70;99.90
2387;DHT22;49473;50.772;8.768;2022-11-02T03:57:22;9.70;99.90
2387;DHT22;49473;50.772;8.768;2022-11-02T03:59:52;9.60;99.90
2387;DHT22;49473;50.772;8.768;2022-11-02T04:02:19;9.70;99.90
2387;DHT22;49473;50.772;8.768;2022-11-02T04:04:49;9.70;99.90
2387;DHT22;49473;50.772;8.768;2022-11-02T04:07:20;9.80;99.90
2387;DHT22;49473;50.772;8.768;2022-11-02T04:09:49;9.90;99.90
2387;DHT22;49473;50.772;8.768;2022-11-02T04:12:16;9.90;99.90
2387;DHT22;49473;50.772;8.768;2022-11-02T04:15:01;9.90;99.90
2387;DHT22;49473;50.772;8.768;2022-11-02T04:17:28;9.90;99.90
2387;DHT22;49473;50.772;8.768;2022-11-02T04:20:12;9.90;99.90
2387;DHT22;49473;50.772;8.768;2022-11-02T04:22:39;10.10;99.90
2387;DHT22;49473;50.772;8.768;2022-11-02T04:25:23;10.00;99.90
2387;DHT22;49473;50.772;8.768;2022-11-02T04:27:51;9.90;99.90
2387;DHT22;49473;50.772;8.768;2022-11-02T04:30:21;10.00;99.90
2387;DHT22;49473;50.772;8.768;2022-11-02T04:32:49;10.00;99.90
2387;DHT22;49473;50.772;8.768;2022-11-02T04:35:35;10.00;99.90
2387;DHT22;49473;50.772;8.768;2022-11-02T04:38:02;9.90;99.90
2387;DHT22;49473;50.772;8.768;2022-11-02T04:40:46;9.90;99.90
2387;DHT22;49473;50.772;8.768;2022-11-02T04:43:13;9.90;99.90
2387;DHT22;49473;50.772;8.768;2022-11-02T04:45:41;9.90;99.90
2387;DHT22;49473;50.772;8.768;2022-11-02T04:48:08;9.90;99.90
2387;DHT22;49473;50.772;8.768;2022-11-02T04:50:35;9.90;99.90
2387;DHT22;49473;50.772;8.768;2022-11-02T04:53:04;9.90;99.90
2387;DHT22;49473;50.772;8.768;2022-11-02T04:55:32;10.00;99.90
2387;DHT22;49473;50.772;8.768;2022-11-02T04:57:59;10.00;99.90
2387;DHT22;49473;50.772;8.768;2022-11-02T05:00:26;10.00;99.90
2387;DHT22;49473;50.772;8.768;2022-11-02T05:02:54;10.00;99.90
2387;DHT22;49473;50.772;8.768;2022-11-02T05:05:22;9.90;99.90
2387;DHT22;49473;50.772;8.768;2022-11-02T05:07:50;9.90;99.90
2387;DHT22;49473;50.772;8.768;2022-11-02T05:10:16;9.80;99.90
2387;DHT22;49473;50.772;8.768;2022-11-02T05:12:43;9.80;99.90
2387;DHT22;49473;50.772;8.768;2022-11-02T05:15:10;9.70;99.90
2387;DHT22;49473;50.772;8.768;2022-11-02T05:17:37;9.70;99.90
2387;DHT22;49473;50.772;8.768;2022-11-02T05:20:05;9.70;99.90
2387;DHT22;49473;50.772;8.768;2022-11-02T05:22:33;9.70;99.90
2387;DHT22;49473;50.772;8.768;2022-11-02T05:25:00;9.70;99.90
2387;DHT22;49473;50.772;8.768;2022-11-02T05:27:26;9.70;99.90
2387;DHT22;49473;50.772;8.768;2022-11-02T05:29:53;9.60;99.90
2387;DHT22;49473;50.772;8.768;2022-11-02T05:32:20;9.60;99.90
2387;DHT22;49473;50.772;8.768;2022-11-02T05:34:48;9.60;99.90
2387;DHT22;49473;50.772;8.768;2022-11-02T05:37:16;9.50;99.90
2387;DHT22;49473;50.772;8.768;2022-11-02T05:39:43;9.40;99.90
2387;DHT22;49473;50.772;8.768;2022-11-02T05:42:10;9.40;99.90
2387;DHT22;49473;50.772;8.768;2022-11-02T05:44:36;9.40;99.90
2387;DHT22;49473;50.772;8.768;2022-11-02T05:47:04;9.40;99.90
2387;DHT22;49473;50.772;8.768;2022-11-02T05:49:31;9.40;99.90
2387;DHT22;49473;50.772;8.768;2022-11-02T05:51:58;9.40;99.90
2387;DHT22;49473;50.772;8.768;2022-11-02T05:54:26;9.30;99.90
2387;DHT22;49473;50.772;8.768;2022-11-02T05:56:53;9.30;99.90
2387;DHT22;49473;50.772;8.768;2022-11-02T05:59:20;9.20;99.90
2387;DHT22;49473;50.772;8.768;2022-11-02T06:01:47;9.20;99.90
2387;DHT22;49473;50.772;8.768;2022-11-02T06:04:14;9.20;99.90
2387;DHT22;49473;50.772;8.768;2022-11-02T06:06:41;9.20;99.90
2387;DHT22;49473;50.772;8.768;2022-11-02T06:09:08;9.30;99.90
2387;DHT22;49473;50.772;8.768;2022-11-02T06:11:36;9.30;99.90
2387;DHT22;49473;50.772;8.768;2022-11-02T06:14:03;9.30;99.90
2387;DHT22;49473;50.772;8.768;2022-11-02T06:16:30;9.30;99.90
2387;DHT22;49473;50.772;8.768;2022-11-02T06:18:57;9.30;99.90
2387;DHT22;49473;50.772;8.768;2022-11-02T06:21:24;9.50;99.90
2387;DHT22;49473;50.772;8.768;2022-11-02T06:23:50;9.50;99.90
2387;DHT22;49473;50.772;8.768;2022-11-02T06:26:17;9.50;99.90
2387;DHT22;49473;50.772;8.768;2022-11-02T06:28:45;9.50;99.90
2387;DHT22;49473;50.772;8.768;2022-11-02T06:31:13;9.50;99.90
2387;DHT22;49473;50.772;8.768;2022-11-02T06:33:42;9.50;99.90
2387;DHT22;49473;50.772;8.768;2022-11-02T06:36:10;9.50;99.90
2387;DHT22;49473;50.772;8.768;2022-11-02T06:38:37;9.50;99.90
2387;DHT22;49473;50.772;8.768;2022-11-02T06:41:04;9.50;99.90
2387;DHT22;49473;50.772;8.768;2022-11-02T06:43:32;9.50;99.90
2387;DHT22;49473;50.772;8.768;2022-11-02T06:46:00;9.50;99.90
2387;DHT22;49473;50.772;8.768;2022-11-02T06:48:27;9.50;99.90
2387;DHT22;49473;50.772;8.768;2022-11-02T06:50:54;9.50;99.90
2387;DHT22;49473;50.772;8.768;2022-11-02T06:53:22;9.60;99.90
2387;DHT22;49473;50.772;8.768;2022-11-02T06:55:52;9.60;99.90
2387;DHT22;49473;50.772;8.768;2022-11-02T06:58:19;9.60;99.90
2387;DHT22;49473;50.772;8.768;2022-11-02T07:00:46;9.60;99.90
2387;DHT22;49473;50.772;8.768;2022-11-02T07:03:14;9.60;99.90
2387;DHT22;49473;50.772;8.768;2022-11-02T07:05:41;9.70;99.90
2387;DHT22;49473;50.772;8.768;2022-11-02T07:08:08;9.70;99.90
2387;DHT22;49473;50.772;8.768;2022-11-02T07:10:35;9.80;99.90
2387;DHT22;49473;50.772;8.768;2022-11-02T07:13:03;9.70;99.90
2387;DHT22;49473;50.772;8.768;2022-11-02T07:15:30;9.70;99.90
2387;DHT22;49473;50.772;8.768;2022-11-02T07:17:56;9.70;99.90
2387;DHT22;49473;50.772;8.768;2022-11-02T07:20:25;9.80;99.90
2387;DHT22;49473;50.772;8.768;2022-11-02T07:22:52;9.80;99.90
2387;DHT22;49473;50.772;8.768;2022-11-02T07:25:19;9.80;99.90
2387;DHT22;49473;50.772;8.768;2022-11-02T07:27:46;9.90;99.90
2387;DHT22;49473;50.772;8.768;2022-11-02T07:30:12;9.90;99.90
2387;DHT22;49473;50.772;8.768;2022-11-02T07:32:40;10.00;99.90
2387;DHT22;49473;50.772;8.768;2022-11-02T07:35:08;10.00;99.90
2387;DHT22;49473;50.772;8.768;2022-11-02T07:37:37;10.10;99.90
2387;DHT22;49473;50.772;8.768;2022-11-02T07:40:05;10.20;99.90
2387;DHT22;49473;50.772;8.768;2022-11-02T07:42:32;10.40;99.90
2387;DHT22;49473;50.772;8.768;2022-11-02T07:44:59;10.50;99.90
2387;DHT22;49473;50.772;8.768;2022-11-02T07:47:26;10.60;99.90
2387;DHT22;49473;50.772;8.768;2022-11-02T07:49:54;10.70;99.90
2387;DHT22;49473;50.772;8.768;2022-11-02T07:52:23;10.70;99.90
2387;DHT22;49473;50.772;8.768;2022-11-02T07:54:51;10.90;99.90
2387;DHT22;49473;50.772;8.768;2022-11-02T07:57:18;11.00;99.90
2387;DHT22;49473;50.772;8.768;2022-11-02T07:59:45;11.20;99.90
2387;DHT22;49473;50.772;8.768;2022-11-02T08:02:12;11.20;99.90
2387;DHT22;49473;50.772;8.768;2022-11-02T08:04:39;11.30;99.90
2387;DHT22;49473;50.772;8.768;2022-11-02T08:07:05;11.40;99.90
2387;DHT22;49473;50.772;8.768;2022-11-02T08:09:32;11.60;99.90
2387;DHT22;49473;50.772;8.768;2022-11-02T08:12:01;11.90;99.90
2387;DHT22;49473;50.772;8.768;2022-11-02T08:14:29;12.00;99.90
2387;DHT22;49473;50.772;8.768;2022-11-02T08:16:57;12.20;99.90
2387;DHT22;49473;50.772;8.768;2022-11-02T08:19:23;12.30;99.90
2387;DHT22;49473;50.772;8.768;2022-11-02T08:21:50;12.30;99.90
2387;DHT22;49473;50.772;8.768;2022-11-02T08:24:17;12.30;99.90
2387;DHT22;49473;50.772;8.768;2022-11-02T08:26:44;12.30;99.90
2387;DHT22;49473;50.772;8.768;2022-11-02T08:29:12;12.30;99.90
2387;DHT22;49473;50.772;8.768;2022-11-02T08:31:39;12.30;99.90
2387;DHT22;49473;50.772;8.768;2022-11-02T08:34:06;12.40;99.90
2387;DHT22;49473;50.772;8.768;2022-11-02T08:36:34;12.40;99.90
2387;DHT22;49473;50.772;8.768;2022-11-02T08:39:01;12.50;99.90
2387;DHT22;49473;50.772;8.768;2022-11-02T08:41:28;12.60;99.90
2387;DHT22;49473;50.772;8.768;2022-11-02T08:43:55;12.70;99.90
2387;DHT22;49473;50.772;8.768;2022-11-02T08:46:24;12.90;99.90
2387;DHT22;49473;50.772;8.768;2022-11-02T08:48:51;13.00;99.90
2387;DHT22;49473;50.772;8.768;2022-11-02T08:51:18;13.20;99.90
2387;DHT22;49473;50.772;8.768;2022-11-02T08:53:45;13.20;99.90
2387;DHT22;49473;50.772;8.768;2022-11-02T08:56:12;13.20;99.90
2387;DHT22;49473;50.772;8.768;2022-11-02T08:58:39;13.30;99.90
2387;DHT22;49473;50.772;8.768;2022-11-02T09:01:06;13.50;99.90
2387;DHT22;49473;50.772;8.768;2022-11-02T09:03:34;14.30;99.90
2387;DHT22;49473;50.772;8.768;2022-11-02T09:06:01;15.00;99.90
2387;DHT22;49473;50.772;8.768;2022-11-02T09:08:28;15.10;99.90
2387;DHT22;49473;50.772;8.768;2022-11-02T09:11:00;15.10;99.90
2387;DHT22;49473;50.772;8.768;2022-11-02T09:13:28;14.80;99.90
2387;DHT22;49473;50.772;8.768;2022-11-02T09:15:56;14.50;99.90
2387;DHT22;49473;50.772;8.768;2022-11-02T09:18:24;14.20;99.90
2387;DHT22;49473;50.772;8.768;2022-11-02T09:20:52;14.10;99.90
2387;DHT22;49473;50.772;8.768;2022-11-02T09:23:20;14.10;99.90
2387;DHT22;49473;50.772;8.768;2022-11-02T09:25:47;14.10;99.90
2387;DHT22;49473;50.772;8.768;2022-11-02T09:28:15;14.00;99.90
2387;DHT22;49473;50.772;8.768;2022-11-02T09:30:42;14.10;99.90
2387;DHT22;49473;50.772;8.768;2022-11-02T09:33:09;14.20;99.90
2387;DHT22;49473;50.772;8.768;2022-11-02T09:35:37;14.30;99.90
2387;DHT22;49473;50.772;8.768;2022-11-02T09:38:06;14.30;99.90
2387;DHT22;49473;50.772;8.768;2022-11-02T09:40:36;14.30;99.90
2387;DHT22;49473;50.772;8.768;2022-11-02T09:43:10;14.40;99.90
2387;DHT22;49473;50.772;8.768;2022-11-02T09:45:44;14.50;99.90
2387;DHT22;49473;50.772;8.768;2022-11-02T09:48:17;14.40;99.90
2387;DHT22;49473;50.772;8.768;2022-11-02T09:50:48;14.40;99.90
2387;DHT22;49473;50.772;8.768;2022-11-02T09:53:21;14.30;99.90
2387;DHT22;49473;50.772;8.768;2022-11-02T09:55:52;14.30;99.90
2387;DHT22;49473;50.772;8.768;2022-11-02T09:58:24;14.30;99.90
2387;DHT22;49473;50.772;8.768;2022-11-02T10:00:57;14.70;99.90
2387;DHT22;49473;50.772;8.768;2022-11-02T10:03:35;14.90;99.90
2387;DHT22;49473;50.772;8.768;2022-11-02T10:06:08;15.00;99.90
2387;DHT22;49473;50.772;8.768;2022-11-02T10:08:47;15.40;99.90
2387;DHT22;49473;50.772;8.768;2022-11-02T10:11:28;17.20;99.90
2387;DHT22;49473;50.772;8.768;2022-11-02T10:14:01;18.00;99.90
2387;DHT22;49473;50.772;8.768;2022-11-02T10:16:35;19.40;99.90
2387;DHT22;49473;50.772;8.768;2022-11-02T10:19:03;20.00;99.90
2387;DHT22;49473;50.772;8.768;2022-11-02T10:21:33;21.00;99.90
2387;DHT22;49473;50.772;8.768;2022-11-02T10:24:10;21.60;99.90
2387;DHT22;49473;50.772;8.768;2022-11-02T10:26:38;21.60;99.90
2387;DHT22;49473;50.772;8.768;2022-11-02T10:29:14;20.40;99.90
2387;DHT22;49473;50.772;8.768;2022-11-02T10:31:43;19.00;99.90
2387;DHT22;49473;50.772;8.768;2022-11-02T10:34:22;17.80;99.90
2387;DHT22;49473;50.772;8.768;2022-11-02T10:36:59;16.90;99.90
2387;DHT22;49473;50.772;8.768;2022-11-02T10:39:34;16.20;99.90
2387;DHT22;49473;50.772;8.768;2022-11-02T10:42:25;15.70;99.90
2387;DHT22;49473;50.772;8.768;2022-11-02T10:45:03;15.00;99.90
2387;DHT22;49473;50.772;8.768;2022-11-02T10:47:36;14.80;99.90
2387;DHT22;49473;50.772;8.768;2022-11-02T10:50:16;14.80;99.90
2387;DHT22;49473;50.772;8.768;2022-11-02T10:52:49;15.20;99.90
2387;DHT22;49473;50.772;8.768;2022-11-02T10:55:21;16.10;99.90
2387;DHT22;49473;50.772;8.768;2022-11-02T10:57:53;16.70;99.90
2387;DHT22;49473;50.772;8.768;2022-11-02T11:00:27;17.10;99.90
2387;DHT22;49473;50.772;8.768;2022-11-02T11:03:13;18.50;99.90
2387;DHT22;49473;50.772;8.768;2022-11-02T11:05:55;20.60;99.90
2387;DHT22;49473;50.772;8.768;2022-11-02T11:08:29;22.30;99.90
2387;DHT22;49473;50.772;8.768;2022-11-02T11:11:14;23.70;94.80
2387;DHT22;49473;50.772;8.768;2022-11-02T11:13:42;23.80;92.80
2387;DHT22;49473;50.772;8.768;2022-11-02T11:16:11;24.80;91.30
2387;DHT22;49473;50.772;8.768;2022-11-02T11:18:38;23.80;87.80
2387;DHT22;49473;50.772;8.768;2022-11-02T11:21:06;22.70;92.10
2387;DHT22;49473;50.772;8.768;2022-11-02T11:23:33;22.40;90.50
2387;DHT22;49473;50.772;8.768;2022-11-02T11:26:01;21.70;91.50
2387;DHT22;49473;50.772;8.768;2022-11-02T11:28:31;20.60;91.00
2387;DHT22;49473;50.772;8.768;2022-11-02T11:31:11;19.70;92.50
2387;DHT22;49473;50.772;8.768;2022-11-02T11:33:47;18.70;93.90
2387;DHT22;49473;50.772;8.768;2022-11-02T11:36:23;18.50;96.40
2387;DHT22;49473;50.772;8.768;2022-11-02T11:38:51;19.60;97.80
2387;DHT22;49473;50.772;8.768;2022-11-02T11:41:19;22.10;96.00
2387;DHT22;49473;50.772;8.768;2022-11-02T11:43:49;23.70;91.30
2387;DHT22;49473;50.772;8.768;2022-11-02T11:46:16;24.20;90.40
2387;DHT22;49473;50.772;8.768;2022-11-02T11:48:48;25.00;85.60
2387;DHT22;49473;50.772;8.768;2022-11-02T11:51:34;24.10;82.20
2387;DHT22;49473;50.772;8.768;2022-11-02T11:54:05;22.30;83.40
2387;DHT22;49473;50.772;8.768;2022-11-02T11:56:32;21.00;86.60
2387;DHT22;49473;50.772;8.768;2022-11-02T11:59:00;21.80;89.60
2387;DHT22;49473;50.772;8.768;2022-11-02T12:01:37;23.40;87.60
2387;DHT22;49473;50.772;8.768;2022-11-02T12:04:04;24.70;83.10
2387;DHT22;49473;50.772;8.768;2022-11-02T12:06:38;25.30;75.50
2387;DHT22;49473;50.772;8.768;2022-11-02T12:09:15;25.90;74.00
2387;DHT22;49473;50.772;8.768;2022-11-02T12:11:51;26.90;73.80
2387;DHT22;49473;50.772;8.768;2022-11-02T12:14:33;28.40;71.20
2387;DHT22;49473;50.772;8.768;2022-11-02T12:17:31;28.60;67.70
2387;DHT22;49473;50.772;8.768;2022-11-02T12:20:10;28.20;67.80
2387;DHT22;49473;50.772;8.768;2022-11-02T12:22:45;28.40;66.30
2387;DHT22;49473;50.772;8.768;2022-11-02T12:25:23;27.50;66.10
2387;DHT22;49473;50.772;8.768;2022-11-02T12:28:02;27.00;69.90
2387;DHT22;49473;50.772;8.768;2022-11-02T12:30:40;26.80;69.20
2387;DHT22;49473;50.772;8.768;2022-11-02T12:33:20;25.50;69.30
2387;DHT22;49473;50.772;8.768;2022-11-02T12:36:01;24.70;72.70
2387;DHT22;49473;50.772;8.768;2022-11-02T12:41:49;22.80;74.70
2387;DHT22;49473;50.772;8.768;2022-11-02T12:47:39;20.40;77.80
2387;DHT22;49473;50.772;8.768;2022-11-02T12:50:15;19.60;83.50
2387;DHT22;49473;50.772;8.768;2022-11-02T12:52:52;18.70;84.00
2387;DHT22;49473;50.772;8.768;2022-11-02T12:55:26;18.40;89.20
2387;DHT22;49473;50.772;8.768;2022-11-02T12:57:59;18.20;88.70
2387;DHT22;49473;50.772;8.768;2022-11-02T13:00:27;17.90;90.20
2387;DHT22;49473;50.772;8.768;2022-11-02T13:03:00;17.60;90.50
2387;DHT22;49473;50.772;8.768;2022-11-02T13:05:34;17.40;91.70
2387;DHT22;49473;50.772;8.768;2022-11-02T13:08:10;17.30;92.40
2387;DHT22;49473;50.772;8.768;2022-11-02T13:10:42;17.10;92.10
2387;DHT22;49473;50.772;8.768;2022-11-02T13:13:13;17.00;93.00
2387;DHT22;49473;50.772;8.768;2022-11-02T13:15:43;16.90;91.30
2387;DHT22;49473;50.772;8.768;2022-11-02T13:18:15;16.80;92.30
2387;DHT22;49473;50.772;8.768;2022-11-02T13:20:46;16.80;92.60
2387;DHT22;49473;50.772;8.768;2022-11-02T13:23:21;16.60;92.30
2387;DHT22;49473;50.772;8.768;2022-11-02T13:25:55;16.50;93.10
2387;DHT22;49473;50.772;8.768;2022-11-02T13:28:29;16.40;94.80
2387;DHT22;49473;50.772;8.768;2022-11-02T13:30:58;16.20;95.60
2387;DHT22;49473;50.772;8.768;2022-11-02T13:33:32;16.10;95.40
2387;DHT22;49473;50.772;8.768;2022-11-02T13:36:01;15.80;96.90
2387;DHT22;49473;50.772;8.768;2022-11-02T13:38:30;15.70;96.40
2387;DHT22;49473;50.772;8.768;2022-11-02T13:41:13;15.70;97.50
2387;DHT22;49473;50.772;8.768;2022-11-02T13:46:56;15.70;98.20
2387;DHT22;49473;50.772;8.768;2022-11-02T13:49:29;15.50;99.90
2387;DHT22;49473;50.772;8.768;2022-11-02T13:51:59;15.50;98.80
2387;DHT22;49473;50.772;8.768;2022-11-02T13:54:30;15.50;99.00
2387;DHT22;49473;50.772;8.768;2022-11-02T13:56:58;15.50;99.90
2387;DHT22;49473;50.772;8.768;2022-11-02T13:59:27;15.50;99.90
2387;DHT22;49473;50.772;8.768;2022-11-02T14:01:55;15.40;99.90
2387;DHT22;49473;50.772;8.768;2022-11-02T14:04:23;15.40;99.90
2387;DHT22;49473;50.772;8.768;2022-11-02T14:06:55;15.30;99.90
2387;DHT22;49473;50.772;8.768;2022-11-02T14:09:29;15.20;99.90
2387;DHT22;49473;50.772;8.768;2022-11-02T14:12:27;15.10;99.90
2387;DHT22;49473;50.772;8.768;2022-11-02T14:18:14;15.00;99.90
2387;DHT22;49473;50.772;8.768;2022-11-02T14:20:51;14.90;99.90
2387;DHT22;49473;50.772;8.768;2022-11-02T14:23:40;14.90;99.90
2387;DHT22;49473;50.772;8.768;2022-11-02T14:26:29;14.80;99.90
2387;DHT22;49473;50.772;8.768;2022-11-02T14:28:57;14.90;99.90
2387;DHT22;49473;50.772;8.768;2022-11-02T14:31:42;14.90;99.90
2387;DHT22;49473;50.772;8.768;2022-11-02T14:34:26;14.90;99.90
2387;DHT22;49473;50.772;8.768;2022-11-02T14:37:09;14.80;99.90
2387;DHT22;49473;50.772;8.768;2022-11-02T14:39:47;14.70;99.90
2387;DHT22;49473;50.772;8.768;2022-11-02T14:45:28;14.60;99.90
2387;DHT22;49473;50.772;8.768;2022-11-02T14:47:59;14.50;99.90
2387;DHT22;49473;50.772;8.768;2022-11-02T14:50:28;14.40;99.90
2387;DHT22;49473;50.772;8.768;2022-11-02T14:52:59;14.50;99.90
2387;DHT22;49473;50.772;8.768;2022-11-02T14:55:29;14.40;99.90
2387;DHT22;49473;50.772;8.768;2022-11-02T14:57:59;14.40;99.90
2387;DHT22;49473;50.772;8.768;2022-11-02T15:00:32;14.40;99.90
2387;DHT22;49473;50.772;8.768;2022-11-02T15:03:03;14.40;99.90
2387;DHT22;49473;50.772;8.768;2022-11-02T15:05:33;14.30;99.90
2387;DHT22;49473;50.772;8.768;2022-11-02T15:08:03;14.30;99.90
2387;DHT22;49473;50.772;8.768;2022-11-02T15:10:40;14.20;99.90
2387;DHT22;49473;50.772;8.768;2022-11-02T15:13:23;14.00;99.90
2387;DHT22;49473;50.772;8.768;2022-11-02T15:16:22;13.90;99.90
2387;DHT22;49473;50.772;8.768;2022-11-02T15:18:49;13.80;99.90
2387;DHT22;49473;50.772;8.768;2022-11-02T15:21:24;13.60;99.90
2387;DHT22;49473;50.772;8.768;2022-11-02T15:26:41;13.50;99.90
2387;DHT22;49473;50.772;8.768;2022-11-02T15:29:15;13.40;99.90
2387;DHT22;49473;50.772;8.768;2022-11-02T15:31:50;13.30;99.90
2387;DHT22;49473;50.772;8.768;2022-11-02T15:34:19;13.20;99.90
2387;DHT22;49473;50.772;8.768;2022-11-02T15:36:47;13.10;99.90
2387;DHT22;49473;50.772;8.768;2022-11-02T15:39:17;12.90;99.90
2387;DHT22;49473;50.772;8.768;2022-11-02T15:41:52;12.80;99.90
2387;DHT22;49473;50.772;8.768;2022-11-02T15:44:34;12.70;99.90
2387;DHT22;49473;50.772;8.768;2022-11-02T15:47:13;12.70;99.90
2387;DHT22;49473;50.772;8.768;2022-11-02T15:50:15;12.60;99.90
2387;DHT22;49473;50.772;8.768;2022-11-02T15:53:04;12.50;99.90
2387;DHT22;49473;50.772;8.768;2022-11-02T15:55:40;12.40;99.90
2387;DHT22;49473;50.772;8.768;2022-11-02T15:58:20;12.20;99.90
2387;DHT22;49473;50.772;8.768;2022-11-02T16:01:05;12.10;99.90
2387;DHT22;49473;50.772;8.768;2022-11-02T16:03:36;11.90;99.90
2387;DHT22;49473;50.772;8.768;2022-11-02T16:06:04;11.80;99.90
2387;DHT22;49473;50.772;8.768;2022-11-02T16:08:32;11.60;99.90
2387;DHT22;49473;50.772;8.768;2022-11-02T16:11:03;11.50;99.90
2387;DHT22;49473;50.772;8.768;2022-11-02T16:13:33;11.50;99.90
2387;DHT22;49473;50.772;8.768;2022-11-02T16:16:05;11.40;99.90
2387;DHT22;49473;50.772;8.768;2022-11-02T16:18:35;11.30;99.90
2387;DHT22;49473;50.772;8.768;2022-11-02T16:21:04;11.20;99.90
2387;DHT22;49473;50.772;8.768;2022-11-02T16:23:33;11.00;99.90
2387;DHT22;49473;50.772;8.768;2022-11-02T16:26:03;11.00;99.90
2387;DHT22;49473;50.772;8.768;2022-11-02T16:28:34;10.90;99.90
2387;DHT22;49473;50.772;8.768;2022-11-02T16:31:04;10.70;99.90
2387;DHT22;49473;50.772;8.768;2022-11-02T16:33:35;10.60;99.90
2387;DHT22;49473;50.772;8.768;2022-11-02T16:36:04;10.50;99.90
2387;DHT22;49473;50.772;8.768;2022-11-02T16:38:31;10.30;99.90